Time;durP1;ratioP1;P1;durP2;ratioP2;P2;SDS_P1;SDS_P2;PMS_P1;PMS_P2;Temp;Humidity;BMP_temperature;BMP_pressure;BME280_temperature;BME280_humidity;BME280_pressure;Samples;Min_cycle;Max_cycle;Signal;HPM_P1;HPM_P2
2022/06/12 00:01:38;;;;;;;;;;;;;;;18.65;83.89;100045.97;6276328;28;20003;-72
2022/06/12 00:04:39;;;;;;;;;;;;;;;18.59;83.10;100053.66;6275048;28;20310;-73
2022/06/12 00:07:41;;;;;;;;;;;;;;;18.52;83.32;100051.59;6275014;28;20302;-72
2022/06/12 00:10:43;;;;;;;;;;;;;;;18.55;83.10;100050.47;6274704;28;19928;-73
2022/06/12 00:13:47;;;;;;;;;;;;;;;18.52;82.87;100056.88;6275734;28;19921;-73
2022/06/12 00:16:47;;;;;;;;;;;;;;;18.56;83.01;100051.31;6274261;28;19921;-75
2022/06/12 00:19:49;;;;;;;;;;;;;;;18.52;83.49;100053.41;6274485;28;19945;-72
2022/06/12 00:22:51;;;;;;;;;;;;;;;18.46;83.13;100049.53;6257585;28;19921;-75
2022/06/12 00:25:51;;;;;;;;;;;;;;;18.53;82.47;100049.78;6275568;28;19921;-75
2022/06/12 00:29:14;;;;;;;;;;;;;;;18.52;81.88;100034.91;6274602;28;19928;-73
2022/06/12 00:32:19;;;;;;;;;;;;;;;18.52;82.06;100035.75;6274657;28;20003;-76
2022/06/12 00:35:21;;;;;;;;;;;;;;;18.63;80.58;100045.28;6274611;28;19999;-72
2022/06/12 00:38:22;;;;;;;;;;;;;;;18.58;81.29;100042.25;6274603;28;19920;-75
2022/06/12 00:41:23;;;;;;;;;;;;;;;18.59;81.13;100041.28;6273211;28;19921;-75
2022/06/12 00:44:27;;;;;;;;;;;;;;;18.61;81.08;100033.22;6274360;28;19921;-73
2022/06/12 00:47:30;;;;;;;;;;;;;;;18.55;80.63;100031.16;6273366;28;19920;-73
2022/06/12 00:50:34;;;;;;;;;;;;;;;18.57;80.63;100029.19;6274174;28;19971;-75
2022/06/12 00:53:37;;;;;;;;;;;;;;;18.56;80.03;100024.91;6272878;28;19925;-76
2022/06/12 00:56:42;;;;;;;;;;;;;;;18.56;79.60;100025.72;6273006;28;19964;-72
2022/06/12 00:59:51;;;;;;;;;;;;;;;18.64;80.20;100039.03;6272958;28;20027;-75
2022/06/12 01:02:54;;;;;;;;;;;;;;;18.56;79.78;100028.38;6274086;28;19924;-72
2022/06/12 01:09:38;;;;;;;;;;;;;;;18.52;80.54;100025.19;6221972;28;19928;-75
2022/06/12 01:12:48;;;;;;;;;;;;;;;18.61;79.60;100020.00;6221632;28;20385;-76
2022/06/12 01:15:51;;;;;;;;;;;;;;;18.49;79.76;100021.97;6272519;28;20015;-75
2022/06/12 01:18:53;;;;;;;;;;;;;;;18.55;79.54;100025.88;6273665;28;19977;-75
2022/06/12 01:22:10;;;;;;;;;;;;;;;18.44;80.20;100018.97;6272364;28;19928;-72
2022/06/12 01:25:17;;;;;;;;;;;;;;;18.45;80.37;100032.03;6273324;28;19928;-72
2022/06/12 01:28:32;;;;;;;;;;;;;;;18.45;79.28;100026.75;6271613;28;19921;-76
2022/06/12 01:31:48;;;;;;;;;;;;;;;18.53;78.92;100023.34;6273322;28;19928;-73
2022/06/12 01:34:53;;;;;;;;;;;;;;;18.39;79.13;100024.69;6272115;28;19920;-76
2022/06/12 01:38:01;;;;;;;;;;;;;;;18.40;79.42;100030.78;6273104;28;19965;-75
2022/06/12 01:41:08;;;;;;;;;;;;;;;18.47;79.04;100032.72;6273138;28;20442;-75
2022/06/12 01:44:12;;;;;;;;;;;;;;;18.41;78.49;100029.81;6273011;28;20342;-76
2022/06/12 01:47:18;;;;;;;;;;;;;;;18.39;79.55;100031.75;6271905;28;19920;-73
2022/06/12 01:50:28;;;;;;;;;;;;;;;18.37;78.80;100031.09;6271281;28;20368;-72
2022/06/12 01:53:47;;;;;;;;;;;;;;;18.39;79.08;100029.97;6271306;28;19920;-73
2022/06/12 01:56:52;;;;;;;;;;;;;;;18.29;78.51;100031.81;6271350;28;20284;-72
2022/06/12 01:59:58;;;;;;;;;;;;;;;18.29;78.67;100031.81;6271294;28;19928;-73
2022/06/12 02:03:05;;;;;;;;;;;;;;;18.27;78.12;100037.22;6254465;28;19959;-72
2022/06/12 02:06:27;;;;;;;;;;;;;;;18.32;77.42;100035.00;6271403;28;19924;-75
2022/06/12 02:09:30;;;;;;;;;;;;;;;18.33;77.34;100047.22;6271196;28;20346;-75
2022/06/12 02:16:08;;;;;;;;;;;;;;;18.18;77.99;100046.03;6272117;28;20015;-75
2022/06/12 02:19:14;;;;;;;;;;;;;;;18.12;78.46;100051.88;6270921;28;19920;-74
2022/06/12 02:22:17;;;;;;;;;;;;;;;18.13;78.04;100045.59;6270958;28;19920;-74
2022/06/12 02:25:21;;;;;;;;;;;;;;;18.16;79.02;100053.25;6271963;28;19920;-74
2022/06/12 02:28:25;;;;;;;;;;;;;;;18.07;78.86;100049.63;6270745;28;20318;-73
2022/06/12 02:31:28;;;;;;;;;;;;;;;17.96;80.50;100055.09;6271993;28;19927;-74
2022/06/12 02:34:33;;;;;;;;;;;;;;;17.94;79.15;100051.75;6270593;28;19928;-75
2022/06/12 02:37:38;;;;;;;;;;;;;;;18.04;79.32;100055.22;6271878;28;19920;-73
2022/06/12 02:40:41;;;;;;;;;;;;;;;17.88;80.17;100061.06;6271968;28;20219;-72
2022/06/12 02:43:43;;;;;;;;;;;;;;;17.90;80.72;100071.50;6270641;28;19925;-77
2022/06/12 02:46:54;;;;;;;;;;;;;;;17.86;79.99;100059.53;6270557;28;19920;-74
2022/06/12 02:49:56;;;;;;;;;;;;;;;17.91;80.00;100070.50;6270556;28;19921;-75
2022/06/12 02:53:05;;;;;;;;;;;;;;;17.73;80.29;100067.72;6271357;28;19924;-75
2022/06/12 02:56:09;;;;;;;;;;;;;;;17.78;80.19;100062.03;6271634;28;19921;-73
2022/06/12 02:59:16;;;;;;;;;;;;;;;17.69;80.37;100063.69;6271569;28;19921;-73
2022/06/12 03:02:20;;;;;;;;;;;;;;;17.70;80.28;100049.50;6271578;28;19920;-75
2022/06/12 03:05:26;;;;;;;;;;;;;;;17.71;79.96;100054.66;6271931;28;19921;-73
2022/06/12 03:08:30;;;;;;;;;;;;;;;17.65;80.29;100055.22;6253755;28;19927;-74
2022/06/12 03:11:36;;;;;;;;;;;;;;;17.63;79.84;100059.81;6270112;28;19920;-74
2022/06/12 03:14:37;;;;;;;;;;;;;;;17.62;80.13;100055.47;6271399;28;19921;-73
2022/06/12 03:17:41;;;;;;;;;;;;;;;17.73;79.69;100062.44;6270234;28;19944;-74
2022/06/12 03:20:48;;;;;;;;;;;;;;;17.78;80.31;100068.13;6270335;28;20268;-73
2022/06/12 03:24:05;;;;;;;;;;;;;;;17.80;79.26;100076.72;6271281;28;19921;-74
2022/06/12 03:27:05;;;;;;;;;;;;;;;17.67;80.49;100071.75;6271234;28;20084;-74
2022/06/12 03:30:09;;;;;;;;;;;;;;;17.82;79.21;100073.97;6270089;28;19925;-73
2022/06/12 03:33:18;;;;;;;;;;;;;;;17.76;79.28;100077.16;6271469;28;19927;-75
2022/06/12 03:36:28;;;;;;;;;;;;;;;17.71;79.83;100082.88;6271189;28;19924;-75
2022/06/12 03:39:37;;;;;;;;;;;;;;;17.78;80.45;100086.59;6270006;28;19921;-75
2022/06/12 03:42:51;;;;;;;;;;;;;;;17.86;79.65;100089.41;6271193;28;19921;-75
2022/06/12 03:46:05;;;;;;;;;;;;;;;17.84;79.75;100093.16;6271049;28;19924;-74
2022/06/12 03:49:25;;;;;;;;;;;;;;;17.81;79.89;100091.63;6271021;28;20367;-75
2022/06/12 03:52:40;;;;;;;;;;;;;;;17.81;80.39;100093.41;6273929;28;19928;-73
2022/06/12 03:59:05;;;;;;;;;;;;;;;17.91;79.75;100091.63;6275440;28;20279;-73
2022/06/12 04:02:08;;;;;;;;;;;;;;;17.92;80.03;100091.47;6274104;28;19921;-74
2022/06/12 04:05:11;;;;;;;;;;;;;;;17.97;79.77;100092.88;6273900;28;20381;-75
2022/06/12 04:08:17;;;;;;;;;;;;;;;18.02;79.78;100103.84;6273882;28;19956;-74
2022/06/12 04:11:20;;;;;;;;;;;;;;;18.10;79.50;100101.34;6275141;28;20272;-75
2022/06/12 04:14:26;;;;;;;;;;;;;;;18.05;80.04;100098.28;6273790;28;19920;-75
2022/06/12 04:17:27;;;;;;;;;;;;;;;18.11;79.10;100111.75;6273782;28;19946;-72
2022/06/12 04:20:35;;;;;;;;;;;;;;;18.14;79.61;100115.94;6273685;28;19927;-72
2022/06/12 04:23:45;;;;;;;;;;;;;;;18.34;79.63;100103.50;6274824;28;19921;-72
2022/06/12 04:26:51;;;;;;;;;;;;;;;18.46;78.03;100106.81;6273582;28;20019;-73
2022/06/12 04:29:56;;;;;;;;;;;;;;;18.48;77.73;100105.69;6273659;28;19979;-72
2022/06/12 04:33:17;;;;;;;;;;;;;;;18.47;77.26;100108.47;6273252;28;19921;-73
2022/06/12 04:36:18;;;;;;;;;;;;;;;18.60;77.01;100111.66;6274393;28;19974;-72
2022/06/12 04:39:20;;;;;;;;;;;;;;;18.70;77.25;100120.38;6273449;28;19921;-75
2022/06/12 04:42:22;;;;;;;;;;;;;;;18.80;76.09;100111.59;6274725;28;19924;-76
2022/06/12 04:45:23;;;;;;;;;;;;;;;18.87;75.83;100112.69;6274418;28;19921;-72
2022/06/12 04:48:29;;;;;;;;;;;;;;;18.96;76.35;100111.81;6256914;28;19966;-76
2022/06/12 04:51:35;;;;;;;;;;;;;;;18.91;76.23;100117.53;6274350;28;19920;-73
2022/06/12 04:54:38;;;;;;;;;;;;;;;19.04;75.20;100116.38;6273964;28;19994;-73
2022/06/12 04:57:39;;;;;;;;;;;;;;;19.13;73.94;100121.63;6273932;28;20334;-72
2022/06/12 05:00:39;;;;;;;;;;;;;;;19.22;71.92;100124.38;6272761;28;19920;-72
2022/06/12 05:03:40;;;;;;;;;;;;;;;19.28;73.55;100121.13;6271641;28;20363;-76
2022/06/12 05:06:44;;;;;;;;;;;;;;;19.41;73.95;100131.34;6273920;28;19978;-76
2022/06/12 05:09:46;;;;;;;;;;;;;;;19.36;72.03;100123.03;6272855;28;19920;-75
2022/06/12 05:12:49;;;;;;;;;;;;;;;19.50;72.12;100123.34;6272401;28;19921;-74
2022/06/12 05:15:49;;;;;;;;;;;;;;;19.61;71.14;100126.75;6272569;28;19921;-72
2022/06/12 05:18:51;;;;;;;;;;;;;;;19.71;71.94;100127.56;6272270;28;20018;-74
2022/06/12 05:21:52;;;;;;;;;;;;;;;19.87;71.29;100121.56;6273593;28;19928;-75
2022/06/12 05:24:52;;;;;;;;;;;;;;;19.88;69.93;100121.41;6255922;28;19929;-74
2022/06/12 05:27:53;;;;;;;;;;;;;;;19.99;69.07;100138.88;6272042;28;20401;-73
2022/06/12 05:30:54;;;;;;;;;;;;;;;20.08;69.14;100134.50;6273289;28;19921;-71
2022/06/12 05:33:55;;;;;;;;;;;;;;;20.16;66.53;100128.41;6273204;28;20337;-75
2022/06/12 05:36:56;;;;;;;;;;;;;;;20.25;68.87;100130.16;6255561;28;19920;-75
2022/06/12 05:39:56;;;;;;;;;;;;;;;20.39;66.80;100140.19;6273032;28;20007;-75
2022/06/12 05:42:58;;;;;;;;;;;;;;;20.52;66.48;100145.91;6273027;28;19920;-74
2022/06/12 05:45:58;;;;;;;;;;;;;;;20.60;66.25;100142.50;6272113;28;19966;-72
2022/06/12 05:48:59;;;;;;;;;;;;;;;20.72;65.69;100140.44;6255785;28;19978;-76
2022/06/12 05:52:02;;;;;;;;;;;;;;;20.79;64.53;100146.75;6272792;28;19921;-73
2022/06/12 05:55:06;;;;;;;;;;;;;;;20.82;64.58;100135.03;6271906;28;19921;-75
2022/06/12 05:58:09;;;;;;;;;;;;;;;21.07;65.05;100143.94;6255889;28;19955;-75
2022/06/12 06:01:17;;;;;;;;;;;;;;;21.06;64.11;100142.25;6271942;28;19947;-74
2022/06/12 06:04:18;;;;;;;;;;;;;;;21.18;63.38;100146.28;6272442;28;19963;-73
2022/06/12 06:07:24;;;;;;;;;;;;;;;21.42;62.50;100144.72;6266365;28;20395;-75
2022/06/12 06:10:26;;;;;;;;;;;;;;;21.37;64.06;100147.81;6268520;28;20360;-74
2022/06/12 06:13:29;;;;;;;;;;;;;;;21.55;64.19;100137.13;6246714;28;19931;-72
2022/06/12 06:16:30;;;;;;;;;;;;;;;21.74;61.55;100138.66;6247049;28;20277;-76
2022/06/12 06:19:32;;;;;;;;;;;;;;;21.68;61.10;100142.81;6247085;28;19921;-74
2022/06/12 06:22:35;;;;;;;;;;;;;;;22.06;61.49;100148.47;6249707;28;19970;-74
2022/06/12 06:25:36;;;;;;;;;;;;;;;22.11;59.08;100146.16;6292478;28;20287;-72
2022/06/12 06:28:37;;;;;;;;;;;;;;;22.21;58.87;100153.13;6254128;28;19931;-73
2022/06/12 06:31:38;;;;;;;;;;;;;;;22.31;58.97;100154.63;6258803;28;19925;-73
2022/06/12 06:34:39;;;;;;;;;;;;;;;22.38;57.93;100151.31;6255669;28;20428;-77
2022/06/12 06:37:40;;;;;;;;;;;;;;;22.52;58.13;100161.25;6261716;28;20336;-72
2022/06/12 06:40:42;;;;;;;;;;;;;;;22.53;57.75;100150.47;6272114;28;19921;-76
2022/06/12 06:47:02;;;;;;;;;;;;;;;23.06;57.07;100158.00;6258710;28;19921;-74
2022/06/12 06:50:03;;;;;;;;;;;;;;;23.08;55.81;100162.16;6229677;28;20299;-73
2022/06/12 06:53:04;;;;;;;;;;;;;;;23.20;54.89;100162.59;6253489;28;20367;-73
2022/06/12 06:56:05;;;;;;;;;;;;;;;23.07;53.82;100160.50;6267315;28;19920;-76
2022/06/12 06:59:07;;;;;;;;;;;;;;;23.00;56.17;100155.97;6271761;28;19950;-73
2022/06/12 07:02:10;;;;;;;;;;;;;;;23.16;53.84;100165.78;6254399;28;19952;-76
2022/06/12 07:05:10;;;;;;;;;;;;;;;23.31;53.30;100167.53;6265037;28;20303;-73
2022/06/12 07:08:12;;;;;;;;;;;;;;;23.56;54.85;100159.44;6262269;28;19971;-73
2022/06/12 07:11:18;;;;;;;;;;;;;;;23.62;52.83;100169.38;6246963;28;19921;-73
2022/06/12 07:14:21;;;;;;;;;;;;;;;23.72;52.12;100161.13;6246876;28;20356;-73
2022/06/12 07:17:22;;;;;;;;;;;;;;;23.69;51.95;100172.16;6246548;28;20399;-73
2022/06/12 07:20:24;;;;;;;;;;;;;;;23.82;53.17;100167.09;6301007;28;19946;-72
2022/06/12 07:23:25;;;;;;;;;;;;;;;23.83;53.02;100173.28;6254011;28;19967;-76
2022/06/12 07:26:30;;;;;;;;;;;;;;;23.79;52.91;100172.78;6248680;28;19925;-73
2022/06/12 07:29:31;;;;;;;;;;;;;;;23.69;53.29;100161.50;6262263;28;19924;-73
2022/06/12 07:32:34;;;;;;;;;;;;;;;24.34;51.94;100162.88;6258340;28;20429;-73
2022/06/12 07:35:36;;;;;;;;;;;;;;;24.56;50.33;100171.84;6274872;28;19921;-73
2022/06/12 07:38:37;;;;;;;;;;;;;;;24.57;49.38;100175.38;6274653;28;20452;-72
2022/06/12 07:41:40;;;;;;;;;;;;;;;24.34;49.95;100162.88;6275935;28;19963;-77
2022/06/12 07:44:40;;;;;;;;;;;;;;;24.58;49.54;100164.50;6275817;28;19927;-73
2022/06/12 07:47:41;;;;;;;;;;;;;;;24.74;49.81;100171.50;6274611;28;19920;-73
2022/06/12 07:50:43;;;;;;;;;;;;;;;25.09;50.25;100161.94;6274365;28;19921;-76
2022/06/12 07:53:46;;;;;;;;;;;;;;;25.02;49.69;100160.19;6274673;28;20338;-76
2022/06/12 07:56:48;;;;;;;;;;;;;;;25.11;48.87;100167.09;6275544;28;19974;-76
2022/06/12 07:59:48;;;;;;;;;;;;;;;25.04;48.55;100159.00;6264786;28;19995;-77
2022/06/12 08:02:49;;;;;;;;;;;;;;;24.98;47.66;100157.06;6259253;28;20291;-76
2022/06/12 08:05:50;;;;;;;;;;;;;;;25.22;47.87;100163.97;6250662;28;19968;-76
2022/06/12 08:08:51;;;;;;;;;;;;;;;25.23;48.45;100170.97;6250938;28;19921;-76
2022/06/12 08:11:54;;;;;;;;;;;;;;;25.21;48.04;100181.00;6249267;28;19932;-72
2022/06/12 08:14:55;;;;;;;;;;;;;;;25.64;46.79;100165.06;6249535;28;20371;-76
2022/06/12 08:17:58;;;;;;;;;;;;;;;25.93;47.16;100172.19;6250180;28;19928;-72
2022/06/12 08:21:01;;;;;;;;;;;;;;;25.19;48.66;100168.84;6232687;28;19950;-74
2022/06/12 08:24:04;;;;;;;;;;;;;;;25.24;49.86;100169.13;6232493;28;19928;-72
2022/06/12 08:27:05;;;;;;;;;;;;;;;25.54;48.87;100168.03;6250191;28;19975;-76
2022/06/12 08:30:07;;;;;;;;;;;;;;;25.70;47.65;100166.16;6250043;28;19924;-76
2022/06/12 08:33:12;;;;;;;;;;;;;;;25.68;48.45;100170.88;6250010;28;19921;-76
2022/06/12 08:36:15;;;;;;;;;;;;;;;25.92;47.15;100172.38;6249705;28;19964;-76
2022/06/12 08:39:16;;;;;;;;;;;;;;;26.01;47.85;100173.91;6248662;28;19925;-76
2022/06/12 08:42:38;;;;;;;;;;;;;;;26.12;46.66;100178.72;6281908;28;20421;-73
2022/06/12 08:45:42;;;;;;;;;;;;;;;26.13;46.25;100184.91;6248595;28;20253;-73
2022/06/12 08:48:52;;;;;;;;;;;;;;;26.39;46.95;100183.47;6272551;28;20059;-74
2022/06/12 08:52:07;;;;;;;;;;;;;;;26.46;46.04;100181.66;6275624;28;20020;-74
2022/06/12 08:55:08;;;;;;;;;;;;;;;26.78;45.18;100179.47;6273893;28;19924;-74
2022/06/12 08:58:25;;;;;;;;;;;;;;;26.86;45.21;100177.44;6251046;28;19964;-76
2022/06/12 09:01:30;;;;;;;;;;;;;;;27.07;43.92;100179.19;6249355;28;19921;-74
2022/06/12 09:04:31;;;;;;;;;;;;;;;26.90;45.60;100177.88;6297303;28;19924;-74
2022/06/12 09:07:50;;;;;;;;;;;;;;;27.18;43.77;100179.66;6264693;28;19970;-76
2022/06/12 09:11:10;;;;;;;;;;;;;;;27.04;43.70;100174.25;6249042;28;19921;-75
2022/06/12 09:14:29;;;;;;;;;;;;;;;26.90;45.03;100177.88;6281221;28;19921;-76
2022/06/12 09:17:53;;;;;;;;;;;;;;;27.28;44.07;100185.50;6280999;28;19944;-75
2022/06/12 09:21:04;;;;;;;;;;;;;;;27.66;43.65;100175.13;6248296;28;20059;-75
2022/06/12 09:24:08;;;;;;;;;;;;;;;27.56;42.91;100176.53;6249010;28;19921;-76
2022/06/12 09:27:32;;;;;;;;;;;;;;;27.68;43.09;100172.25;6280884;28;19921;-75
2022/06/12 09:30:36;;;;;;;;;;;;;;;27.58;46.69;100174.50;6230550;28;20343;-74
2022/06/12 09:33:42;;;;;;;;;;;;;;;28.01;43.33;100177.69;6249226;28;19928;-74
2022/06/12 09:36:56;;;;;;;;;;;;;;;27.44;44.35;100170.94;6271234;28;19944;-75
2022/06/12 09:40:03;;;;;;;;;;;;;;;27.53;44.13;100172.44;6294331;28;19965;-75
2022/06/12 09:43:13;;;;;;;;;;;;;;;27.60;43.67;100167.91;6273090;28;19920;-74
2022/06/12 09:46:33;;;;;;;;;;;;;;;27.47;45.49;100167.88;6256260;28;19924;-74
2022/06/12 09:49:39;;;;;;;;;;;;;;;27.49;45.92;100160.47;6247464;28;19921;-74
2022/06/12 09:52:53;;;;;;;;;;;;;;;27.31;45.19;100158.34;6247908;28;19921;-76
2022/06/12 09:55:58;;;;;;;;;;;;;;;27.36;45.55;100153.19;6248147;28;19921;-76
2022/06/12 09:59:02;;;;;;;;;;;;;;;27.40;44.09;100151.75;6247920;28;19921;-74
2022/06/12 10:02:11;;;;;;;;;;;;;;;28.18;43.20;100156.66;6246640;28;19921;-74
2022/06/12 10:05:16;;;;;;;;;;;;;;;28.22;43.20;100157.88;6247838;28;19920;-75
2022/06/12 10:08:37;;;;;;;;;;;;;;;28.17;43.63;100152.34;6248248;28;20441;-75
2022/06/12 10:11:42;;;;;;;;;;;;;;;28.63;41.33;100146.09;6247081;28;20391;-74
2022/06/12 10:14:45;;;;;;;;;;;;;;;28.61;40.88;100153.53;6246547;28;19924;-75
2022/06/12 10:17:55;;;;;;;;;;;;;;;28.66;42.27;100140.34;6246700;28;19925;-75
2022/06/12 10:21:00;;;;;;;;;;;;;;;28.88;40.33;100145.44;6247826;28;19976;-76
2022/06/12 10:24:01;;;;;;;;;;;;;;;28.60;41.08;100140.31;6247932;28;19928;-75
2022/06/12 10:27:07;;;;;;;;;;;;;;;28.67;41.61;100141.16;6230164;28;19921;-75
2022/06/12 10:30:21;;;;;;;;;;;;;;;29.17;41.26;100137.91;6247866;28;19967;-74
2022/06/12 10:33:22;;;;;;;;;;;;;;;29.35;41.72;100129.97;6246764;28;19935;-74
2022/06/12 10:36:30;;;;;;;;;;;;;;;29.41;39.80;100133.66;6248205;28;20019;-76
2022/06/12 10:39:32;;;;;;;;;;;;;;;29.39;39.85;100130.38;6230480;28;19990;-76
2022/06/12 10:42:39;;;;;;;;;;;;;;;29.59;38.87;100136.44;6246972;28;19936;-74
2022/06/12 10:45:42;;;;;;;;;;;;;;;29.68;39.11;100124.38;6280074;28;19921;-75
2022/06/12 10:48:53;;;;;;;;;;;;;;;29.63;38.65;100131.44;6248166;28;19978;-76
2022/06/12 10:52:03;;;;;;;;;;;;;;;29.70;39.10;100127.72;6246490;28;20314;-73
2022/06/12 10:55:09;;;;;;;;;;;;;;;29.68;39.89;100128.94;6246510;28;19952;-74
2022/06/12 10:58:28;;;;;;;;;;;;;;;29.25;41.23;100124.22;6229532;28;19966;-74
2022/06/12 11:01:36;;;;;;;;;;;;;;;28.67;43.07;100117.81;6282415;28;19921;-74
2022/06/12 11:04:39;;;;;;;;;;;;;;;28.95;41.00;100103.25;6252910;28;19933;-75
2022/06/12 11:07:57;;;;;;;;;;;;;;;29.32;40.79;100104.34;6252640;28;20067;-74
2022/06/12 11:11:24;;;;;;;;;;;;;;;29.86;40.69;100107.53;6252461;28;19921;-74
2022/06/12 11:14:30;;;;;;;;;;;;;;;29.66;38.64;100104.13;6250869;28;20458;-75
2022/06/12 11:18:03;;;;;;;;;;;;;;;29.05;39.24;100097.44;6284525;28;19925;-74
2022/06/12 11:21:16;;;;;;;;;;;;;;;29.28;38.69;100094.22;6234077;28;20002;-75
2022/06/12 11:24:19;;;;;;;;;;;;;;;29.46;40.02;100088.94;6252326;28;19975;-74
2022/06/12 11:27:37;;;;;;;;;;;;;;;29.37;40.23;100094.81;6250597;28;19921;-74
2022/06/12 11:30:47;;;;;;;;;;;;;;;29.84;39.06;100093.47;6251482;28;19921;-75
2022/06/12 11:33:59;;;;;;;;;;;;;;;29.96;38.30;100087.38;6283347;28;19921;-75
2022/06/12 11:36:59;;;;;;;;;;;;;;;29.88;37.28;100086.63;6250162;28;20357;-74
2022/06/12 11:40:15;;;;;;;;;;;;;;;29.40;38.46;100081.75;6266381;28;19924;-75
2022/06/12 11:43:39;;;;;;;;;;;;;;;29.81;38.07;100083.16;6283156;28;20140;-75
2022/06/12 11:46:40;;;;;;;;;;;;;;;29.95;37.50;100070.41;6250363;28;19924;-74
2022/06/12 11:50:00;;;;;;;;;;;;;;;29.66;40.47;100074.56;6283151;28;19959;-75
2022/06/12 11:53:06;;;;;;;;;;;;;;;29.87;38.69;100068.00;6250631;28;19921;-75
2022/06/12 11:56:31;;;;;;;;;;;;;;;29.00;40.46;100065.03;6250850;28;20397;-75
2022/06/12 11:59:43;;;;;;;;;;;;;;;29.10;39.76;100071.59;6249554;28;19921;-75
2022/06/12 12:02:56;;;;;;;;;;;;;;;29.88;37.99;100056.22;6249454;28;19920;-74
2022/06/12 12:06:03;;;;;;;;;;;;;;;30.09;38.55;100049.63;6285362;28;19929;-74
2022/06/12 12:09:21;;;;;;;;;;;;;;;29.64;37.91;100055.97;6250579;28;20430;-74
2022/06/12 12:12:27;;;;;;;;;;;;;;;30.20;38.98;100045.34;6249904;28;20441;-74
2022/06/12 12:15:48;;;;;;;;;;;;;;;29.18;37.56;100043.69;6249377;28;20363;-75
2022/06/12 12:18:53;;;;;;;;;;;;;;;29.72;37.45;100047.66;6249291;28;20356;-75
2022/06/12 12:21:58;;;;;;;;;;;;;;;28.77;39.15;100031.47;6264402;28;19928;-75
2022/06/12 12:25:19;;;;;;;;;;;;;;;28.44;39.41;100036.94;6267743;28;19921;-75
2022/06/12 12:28:28;;;;;;;;;;;;;;;29.67;37.33;100027.81;6258620;28;19921;-74
2022/06/12 12:31:29;;;;;;;;;;;;;;;29.86;37.78;100034.94;6274787;28;20379;-74
2022/06/12 12:34:31;;;;;;;;;;;;;;;29.31;37.25;100032.03;6297257;28;19964;-74
2022/06/12 12:41:12;;;;;;;;;;;;;;;29.00;38.48;100030.13;6274352;28;19932;-74
2022/06/12 12:44:33;;;;;;;;;;;;;;;29.22;38.26;100018.03;6274480;28;19931;-74
2022/06/12 12:47:36;;;;;;;;;;;;;;;29.21;36.66;100032.47;6267272;28;19921;-74
2022/06/12 12:50:48;;;;;;;;;;;;;;;28.49;38.01;100031.75;6272859;28;19999;-75
2022/06/12 12:53:48;;;;;;;;;;;;;;;28.14;38.52;100024.81;6273969;28;19921;-75
2022/06/12 12:56:59;;;;;;;;;;;;;;;28.10;37.70;100038.84;6256139;28;19943;-74
2022/06/12 13:00:00;;;;;;;;;;;;;;;28.42;37.90;100021.03;6272724;28;20413;-75
2022/06/12 13:03:04;;;;;;;;;;;;;;;28.26;38.33;100029.53;6273865;28;19920;-74
2022/06/12 13:06:22;;;;;;;;;;;;;;;28.17;38.84;100020.91;6256180;28;20418;-74
2022/06/12 13:09:42;;;;;;;;;;;;;;;28.31;38.65;100019.00;6273828;28;19925;-74
2022/06/12 13:12:49;;;;;;;;;;;;;;;28.33;38.30;100022.28;6273619;28;19931;-74
2022/06/12 13:15:59;;;;;;;;;;;;;;;27.65;39.43;100017.19;6255835;28;19925;-75
2022/06/12 13:19:22;;;;;;;;;;;;;;;27.77;38.91;100009.38;6273534;28;19921;-75
2022/06/12 13:22:41;;;;;;;;;;;;;;;27.95;38.85;100014.13;6272704;28;20370;-75
2022/06/12 13:25:47;;;;;;;;;;;;;;;28.00;38.97;100007.09;6273480;28;19927;-75
2022/06/12 13:28:58;;;;;;;;;;;;;;;27.96;38.37;100008.53;6273349;28;20378;-74
2022/06/12 13:32:05;;;;;;;;;;;;;;;28.06;38.46;100005.44;6273311;28;19995;-75
2022/06/12 13:35:16;;;;;;;;;;;;;;;28.21;37.88;99998.00;6273275;28;19975;-75
2022/06/12 13:38:19;;;;;;;;;;;;;;;28.22;38.33;100005.00;6273147;28;19924;-75
2022/06/12 13:41:35;;;;;;;;;;;;;;;28.05;38.95;100009.16;6271799;28;20011;-74
2022/06/12 13:44:37;;;;;;;;;;;;;;;27.99;37.89;100005.44;6255106;28;19970;-74
2022/06/12 13:47:38;;;;;;;;;;;;;;;27.55;37.74;99996.19;6271912;28;20330;-74
2022/06/12 13:50:44;;;;;;;;;;;;;;;27.65;38.42;100001.13;6271620;28;19932;-75
2022/06/12 13:53:48;;;;;;;;;;;;;;;27.73;38.00;99995.53;6272614;28;20015;-74
2022/06/12 13:56:51;;;;;;;;;;;;;;;27.90;39.39;100004.84;6272801;28;19933;-74
2022/06/12 13:59:52;;;;;;;;;;;;;;;27.89;37.66;100000.50;6271412;28;19921;-75
2022/06/12 14:02:55;;;;;;;;;;;;;;;27.91;38.57;100005.66;6271375;28;19951;-75
2022/06/12 14:05:58;;;;;;;;;;;;;;;27.57;37.82;100002.13;6272623;28;19927;-75
2022/06/12 14:09:16;;;;;;;;;;;;;;;27.44;38.06;100002.97;6272552;28;19966;-74
2022/06/12 14:12:17;;;;;;;;;;;;;;;27.47;38.45;99996.41;6271056;28;19925;-75
2022/06/12 14:15:44;;;;;;;;;;;;;;;27.62;38.08;99993.50;6272390;28;20342;-74
2022/06/12 14:18:56;;;;;;;;;;;;;;;27.84;38.65;99986.88;6253327;28;19920;-75
2022/06/12 14:22:12;;;;;;;;;;;;;;;27.93;38.30;99995.56;6249806;28;19948;-74
2022/06/12 14:25:28;;;;;;;;;;;;;;;27.73;38.29;99993.69;6262821;28;19928;-75
2022/06/12 14:28:34;;;;;;;;;;;;;;;27.57;38.67;99994.09;6247431;28;19944;-75
2022/06/12 14:31:35;;;;;;;;;;;;;;;27.53;38.96;99995.56;6247284;28;20305;-74
2022/06/12 14:34:36;;;;;;;;;;;;;;;27.50;38.97;99988.75;6246891;28;19925;-74
2022/06/12 14:37:42;;;;;;;;;;;;;;;27.32;39.17;99988.53;6279380;28;19921;-74
2022/06/12 14:40:43;;;;;;;;;;;;;;;27.22;39.80;99985.41;6247170;28;19921;-75
2022/06/12 14:43:43;;;;;;;;;;;;;;;27.26;39.88;99984.00;6247141;28;20602;-75
2022/06/12 14:46:45;;;;;;;;;;;;;;;26.99;40.30;99975.06;6274433;28;20329;-75
2022/06/12 14:49:47;;;;;;;;;;;;;;;27.25;40.79;99975.13;6287375;28;19920;-75
2022/06/12 14:52:48;;;;;;;;;;;;;;;27.56;40.98;99981.75;6247385;28;19925;-74
2022/06/12 14:55:49;;;;;;;;;;;;;;;27.52;40.39;99983.19;6246043;28;21226;-75
2022/06/12 14:58:50;;;;;;;;;;;;;;;27.32;39.96;99985.84;6268549;28;19948;-74
2022/06/12 15:01:52;;;;;;;;;;;;;;;27.30;39.38;99977.19;6271757;28;19920;-74
2022/06/12 15:04:55;;;;;;;;;;;;;;;27.21;39.32;99981.91;6270553;28;19920;-74
2022/06/12 15:08:00;;;;;;;;;;;;;;;27.03;39.60;99977.13;6271753;28;20003;-74
2022/06/12 15:11:01;;;;;;;;;;;;;;;27.45;40.54;99971.66;6272010;28;19921;-75
2022/06/12 15:14:03;;;;;;;;;;;;;;;27.45;40.93;99967.13;6253911;28;19956;-73
2022/06/12 15:17:05;;;;;;;;;;;;;;;27.45;40.35;99968.97;6271643;28;19928;-74
2022/06/12 15:20:06;;;;;;;;;;;;;;;27.20;40.67;99958.84;6271580;28;19932;-75
2022/06/12 15:23:11;;;;;;;;;;;;;;;27.06;41.09;99966.03;6270252;28;19921;-75
2022/06/12 15:29:46;;;;;;;;;;;;;;;27.33;41.04;99960.72;6246604;28;20295;-75
2022/06/12 15:32:47;;;;;;;;;;;;;;;27.49;41.77;99954.97;6249897;28;20357;-74
2022/06/12 15:35:48;;;;;;;;;;;;;;;27.28;41.08;99956.00;6271312;28;19927;-74
2022/06/12 15:38:49;;;;;;;;;;;;;;;27.33;41.87;99956.19;6269988;28;19920;-75
2022/06/12 15:41:50;;;;;;;;;;;;;;;27.28;41.60;99958.69;6279945;28;19927;-75
2022/06/12 15:44:50;;;;;;;;;;;;;;;27.38;42.23;99957.44;6246516;28;19921;-74
2022/06/12 15:47:51;;;;;;;;;;;;;;;27.57;41.50;99967.31;6250280;28;20359;-75
2022/06/12 15:50:52;;;;;;;;;;;;;;;27.72;40.38;99961.75;6249780;28;19971;-75
2022/06/12 15:53:53;;;;;;;;;;;;;;;27.50;41.28;99961.94;6216838;28;19929;-74
2022/06/12 15:56:58;;;;;;;;;;;;;;;27.35;41.14;99955.19;6263651;28;19931;-73
2022/06/12 15:59:59;;;;;;;;;;;;;;;27.39;41.93;99948.38;6275660;28;19925;-74
2022/06/12 16:02:59;;;;;;;;;;;;;;;27.60;41.41;99952.69;6275897;28;20410;-74
2022/06/12 16:06:03;;;;;;;;;;;;;;;27.61;40.87;99955.13;6290989;28;20322;-74
2022/06/12 16:09:04;;;;;;;;;;;;;;;27.25;41.87;99951.03;6307736;28;19928;-75
2022/06/12 16:12:05;;;;;;;;;;;;;;;27.20;42.10;99952.63;6274137;28;19946;-74
2022/06/12 16:15:08;;;;;;;;;;;;;;;27.19;42.70;99957.19;6274973;28;19927;-73
2022/06/12 16:18:09;;;;;;;;;;;;;;;27.16;42.39;99954.94;6262719;28;20330;-74